KLRF/LRF METAR and TAF weather

Enter ICAO airport designator
Station Type Date Time Source
KLRF METAR 2020/07/08 00:56 UTC NOAA

KLRF 080056Z AUTO 15004KT 10SM CLR 29/22 A2992 RMK AO2 SLP131 T02900222


Station Type Date Time Source
KLRF Decoded METAR 2020/07/08 00:56 UTC NOAA

Little Rock Air Force Base, AR, United States (KLRF) 34-55N 092-09W
Jul 07, 2020 - 08:56 PM EDT / 2020.07.08 0056 UTC
Wind: from the SSE (150 degrees) at 5 MPH (4 KT):0
Visibility: 10 mile(s):0
Sky conditions: clear
Temperature: 84.2 F (29.0 C)
Dew Point: 72.0 F (22.2 C)
Relative Humidity: 66%
Pressure (altimeter): 29.92 in. Hg (1013 hPa)
ob: KLRF 080056Z AUTO 15004KT 10SM CLR 29/22 A2992 RMK AO2 SLP131 T02900222
cycle: 1

Station Type Date Time Source
KLRF TAF 2020/07/07 23:12 UTC NOAA

TAF TAF KLRF 072308Z 0723/0905 17008KT 9999 FEW030 SCT100 QNH2989INS
BECMG 0806/0807 19003KT 9999 SCT015 BKN040 OVC060 QNH2994INS
BECMG 0810/0811 VRB02KT 1600 BR OVC005 QNH2993INS
BECMG 0814/0815 17003KT 9999 NSW SCT025 BKN050 BKN080 QNH2991INS
TEMPO 0817/0819 VRB15G25KT 8000 -TSRA BKN020CB OVC060
BECMG 0819/0820 16015G30KT 9000 -TSRA BKN030CB BKN060 QNH2989INS
BECMG 0822/0823 18005KT 9999 NSW FEW040 SCT070 QNH2987INS
BECMG 0901/0902 17003KT 9999 SCT035 BKN050 OVC070 QNH2986INS TX32/0821Z TN23/0810Z

Example: see airport list